Time;durP1;ratioP1;P1;durP2;ratioP2;P2;SDS_P1;SDS_P2;PMS_P1;PMS_P2;Temp;Humidity;BMP_temperature;BMP_pressure;BME280_temperature;BME280_humidity;BME280_pressure;Samples;Min_cycle;Max_cycle;Signal;HPM_P1;HPM_P2
2023/04/20 00:01:37;;;;;;;5.17;2.53;;;8.20;1.00;;;;;;5058096;28;20176;-75
2023/04/20 00:04:02;;;;;;;3.60;2.20;;;8.20;1.00;;;;;;5057768;28;20192;-75
2023/04/20 00:06:31;;;;;;;2.97;2.20;;;8.20;1.00;;;;;;5060166;28;20626;-75
2023/04/20 00:08:57;;;;;;;4.33;2.17;;;8.10;1.00;;;;;;5062763;28;20172;-75
2023/04/20 00:11:23;;;;;;;5.00;2.17;;;8.10;1.00;;;;;;5063211;28;20294;-75
2023/04/20 00:13:48;;;;;;;4.47;2.10;;;8.20;4.30;;;;;;5062649;28;20270;-75
2023/04/20 00:16:14;;;;;;;5.47;2.33;;;8.10;59.30;;;;;;5061148;28;20179;-75
2023/04/20 00:18:40;;;;;;;3.97;2.30;;;8.00;52.10;;;;;;5062527;28;20190;-74
2023/04/20 00:21:05;;;;;;;5.17;2.27;;;8.00;99.90;;;;;;5061360;28;20179;-75
2023/04/20 00:23:31;;;;;;;4.20;2.17;;;8.00;99.90;;;;;;5062328;28;20205;-75
2023/04/20 00:25:56;;;;;;;3.47;2.27;;;7.90;99.90;;;;;;5061471;28;20182;-75
2023/04/20 00:28:22;;;;;;;5.33;2.30;;;7.80;99.90;;;;;;5061017;28;20241;-74
2023/04/20 00:30:47;;;;;;;8.63;2.43;;;7.80;99.90;;;;;;5061722;28;20288;-75
2023/04/20 00:33:13;;;;;;;5.87;2.30;;;7.80;99.90;;;;;;5062227;28;20259;-75
2023/04/20 00:35:39;;;;;;;3.03;2.33;;;7.80;99.90;;;;;;5061724;28;20229;-75
2023/04/20 00:38:04;;;;;;;4.67;2.20;;;7.80;99.90;;;;;;5060658;28;20270;-74
2023/04/20 00:40:30;;;;;;;4.47;3.03;;;7.80;1.00;;;;;;5062050;28;20176;-75
2023/04/20 00:42:56;;;;;;;4.77;2.37;;;7.70;1.00;;;;;;5060808;28;20184;-75
2023/04/20 00:45:21;;;;;;;4.00;2.10;;;7.70;1.00;;;;;;5062334;28;20320;-75
2023/04/20 00:47:47;;;;;;;2.70;2.10;;;7.60;1.00;;;;;;5061015;28;20195;-75
2023/04/20 00:50:14;;;;;;;4.40;2.27;;;7.60;1.00;;;;;;5060726;28;20176;-75
2023/04/20 00:52:40;;;;;;;5.70;2.23;;;7.50;1.00;;;;;;5060245;28;20270;-74
2023/04/20 00:55:06;;;;;;;3.07;2.17;;;7.50;99.90;;;;;;5060675;28;20657;-75
2023/04/20 00:57:32;;;;;;;5.27;1.83;;;7.50;1.00;;;;;;5060738;28;20206;-75
2023/04/20 00:59:57;;;;;;;5.67;2.23;;;7.40;1.00;;;;;;5060494;28;20178;-75
2023/04/20 01:02:23;;;;;;;3.37;2.33;;;7.30;99.90;;;;;;5062152;28;20175;-75
2023/04/20 01:04:48;;;;;;;5.67;2.30;;;7.30;1.00;;;;;;5061882;28;20275;-74
2023/04/20 01:07:14;;;;;;;5.60;2.53;;;7.30;1.00;;;;;;5060606;28;20429;-74
2023/04/20 01:09:40;;;;;;;4.87;2.17;;;7.30;1.00;;;;;;5060677;28;20648;-75
2023/04/20 01:12:06;;;;;;;3.43;2.20;;;7.20;99.90;;;;;;5060610;28;20195;-75
2023/04/20 01:14:32;;;;;;;6.13;2.70;;;7.30;99.90;;;;;;5059720;28;20243;-75
2023/04/20 01:16:57;;;;;;;5.73;2.43;;;7.20;1.00;;;;;;5061032;28;20201;-75
2023/04/20 01:19:23;;;;;;;6.60;2.50;;;7.20;99.90;;;;;;5060726;28;20195;-75
2023/04/20 01:21:49;;;;;;;7.27;2.20;;;7.20;99.90;;;;;;5061012;28;20647;-75
2023/04/20 01:24:14;;;;;;;3.27;2.00;;;7.20;1.00;;;;;;5060678;28;20243;-75
2023/04/20 01:26:40;;;;;;;9.60;2.20;;;7.20;1.00;;;;;;5059421;28;20175;-75
2023/04/20 01:29:06;;;;;;;4.23;2.10;;;7.10;1.00;;;;;;5061383;28;20186;-75
2023/04/20 01:31:31;;;;;;;6.13;1.80;;;7.10;1.00;;;;;;5061447;28;20263;-75
2023/04/20 01:33:57;;;;;;;4.17;1.90;;;7.00;1.00;;;;;;5059947;28;20261;-75
2023/04/20 01:36:22;;;;;;;6.77;2.40;;;7.00;1.00;;;;;;5059723;28;20656;-75
2023/04/20 01:38:48;;;;;;;4.90;2.07;;;6.80;1.00;;;;;;5061292;28;20177;-75
2023/04/20 01:41:14;;;;;;;4.33;2.63;;;6.90;99.90;;;;;;5061569;28;20182;-75
2023/04/20 01:43:40;;;;;;;5.97;2.50;;;6.90;1.00;;;;;;5061459;28;20199;-75
2023/04/20 01:46:06;;;;;;;3.33;2.17;;;6.80;1.00;;;;;;5060247;28;20191;-75
2023/04/20 01:48:32;;;;;;;3.63;1.60;;;6.80;1.00;;;;;;5060055;28;20661;-75
2023/04/20 01:50:58;;;;;;;3.33;1.97;;;6.70;1.00;;;;;;5060836;28;20167;-75
2023/04/20 01:53:24;;;;;;;4.63;2.10;;;6.70;1.00;;;;;;5059271;28;20252;-75
2023/04/20 01:55:50;;;;;;;2.97;2.10;;;6.60;1.00;;;;;;5059156;28;20271;-75
2023/04/20 01:58:15;;;;;;;4.93;2.00;;;6.70;1.00;;;;;;5058938;28;20178;-75
2023/04/20 02:00:41;;;;;;;3.77;1.73;;;6.60;1.00;;;;;;5059367;28;20179;-75
2023/04/20 02:03:07;;;;;;;5.67;1.80;;;6.70;1.00;;;;;;5059012;28;20203;-75
2023/04/20 02:05:33;;;;;;;5.53;1.80;;;6.70;1.00;;;;;;5059504;28;20203;-74
2023/04/20 02:07:58;;;;;;;5.70;2.07;;;6.70;1.00;;;;;;5059488;28;20209;-75
2023/04/20 02:10:24;;;;;;;3.07;1.90;;;6.60;1.00;;;;;;5059508;28;20187;-76
2023/04/20 02:12:50;;;;;;;4.00;2.07;;;6.60;1.00;;;;;;5059094;28;20608;-75
2023/04/20 02:15:16;;;;;;;5.67;2.07;;;6.60;1.00;;;;;;5058996;28;20307;-74
2023/04/20 02:17:42;;;;;;;2.53;2.03;;;6.60;1.00;;;;;;5060459;28;20567;-75
2023/04/20 02:20:09;;;;;;;5.87;2.33;;;6.70;1.00;;;;;;5058953;28;20206;-75
2023/04/20 02:22:35;;;;;;;5.87;2.50;;;6.70;1.00;;;;;;5058622;28;20191;-75
2023/04/20 02:25:05;;;;;;;6.60;2.20;;;6.70;1.00;;;;;;5059870;28;20195;-75
2023/04/20 02:27:31;;;;;;;3.90;1.93;;;6.70;1.00;;;;;;5059901;28;20190;-74
2023/04/20 02:29:58;;;;;;;3.67;2.10;;;6.70;1.00;;;;;;5061738;28;20184;-75
2023/04/20 02:32:23;;;;;;;2.97;2.20;;;6.70;1.00;;;;;;5061726;28;20549;-75
2023/04/20 02:34:49;;;;;;;4.30;1.90;;;6.70;1.00;;;;;;5061356;28;20263;-75
2023/04/20 02:37:14;;;;;;;4.23;1.70;;;6.70;1.00;;;;;;5059404;28;20622;-74
2023/04/20 02:39:40;;;;;;;4.43;2.10;;;6.70;1.00;;;;;;5058740;28;20176;-75
2023/04/20 02:42:05;;;;;;;3.77;1.83;;;6.70;1.00;;;;;;5058781;28;20164;-75
2023/04/20 02:44:31;;;;;;;2.53;1.90;;;6.80;1.00;;;;;;5045233;28;20560;-75
2023/04/20 02:46:56;;;;;;;5.13;2.00;;;6.80;1.00;;;;;;5039998;28;20299;-75
2023/04/20 02:49:22;;;;;;;5.23;2.10;;;6.80;1.00;;;;;;5040140;28;20183;-75
2023/04/20 02:51:48;;;;;;;2.90;1.90;;;6.80;1.00;;;;;;5039366;28;20180;-75
2023/04/20 02:54:13;;;;;;;4.53;2.20;;;6.80;1.00;;;;;;5038038;28;20303;-74
2023/04/20 02:56:39;;;;;;;3.30;1.73;;;6.90;1.00;;;;;;5039399;28;20181;-75
2023/04/20 02:59:04;;;;;;;3.20;1.90;;;7.00;1.00;;;;;;5038188;28;20204;-75
2023/04/20 03:01:30;;;;;;;4.17;2.20;;;7.00;1.00;;;;;;5039974;28;20176;-75
2023/04/20 03:03:56;;;;;;;3.17;2.00;;;7.00;1.00;;;;;;5037802;28;20584;-75
2023/04/20 03:06:21;;;;;;;4.70;2.30;;;7.10;1.00;;;;;;5038886;28;20172;-75
2023/04/20 03:08:47;;;;;;;3.23;1.70;;;7.10;1.00;;;;;;5038964;28;20165;-75
2023/04/20 03:11:13;;;;;;;4.53;1.87;;;7.80;1.00;;;;;;5038160;28;20227;-75
2023/04/20 03:13:38;;;;;;;2.60;1.63;;;7.10;1.00;;;;;;5039282;28;20250;-75
2023/04/20 03:16:04;;;;;;;3.50;1.67;;;7.30;1.00;;;;;;5039777;28;20200;-75
2023/04/20 03:18:30;;;;;;;3.07;2.10;;;7.20;1.00;;;;;;5041294;28;20169;-75
2023/04/20 03:20:56;;;;;;;3.37;1.90;;;7.10;1.00;;;;;;5040215;28;20175;-75
2023/04/20 03:23:21;;;;;;;4.20;1.70;;;7.20;1.00;;;;;;5039210;28;20184;-75
2023/04/20 03:25:47;;;;;;;2.97;1.80;;;7.10;1.00;;;;;;5040405;28;20255;-75
2023/04/20 03:28:14;;;;;;;6.60;2.20;;;7.20;1.00;;;;;;5039322;28;20511;-75
2023/04/20 03:30:40;;;;;;;5.27;2.20;;;7.20;1.00;;;;;;5038772;28;20172;-75
2023/04/20 03:33:06;;;;;;;4.83;1.90;;;7.20;1.00;;;;;;5038811;28;20172;-75
2023/04/20 03:35:31;;;;;;;5.73;1.90;;;7.20;1.00;;;;;;5038799;28;20211;-74
2023/04/20 03:37:57;;;;;;;2.97;2.10;;;7.20;1.00;;;;;;5039537;28;20255;-75
2023/04/20 03:40:22;;;;;;;5.00;1.93;;;7.20;1.00;;;;;;5037530;28;20183;-75
2023/04/20 03:42:48;;;;;;;4.20;2.00;;;7.20;1.00;;;;;;5040850;28;20259;-74
2023/04/20 03:45:14;;;;;;;4.33;2.23;;;7.20;1.00;;;;;;5042517;28;20318;-75
2023/04/20 03:47:40;;;;;;;5.47;1.80;;;7.20;1.00;;;;;;5041881;28;20184;-75
2023/04/20 03:50:06;;;;;;;5.63;2.17;;;7.20;1.00;;;;;;5042781;28;20207;-75
2023/04/20 03:52:31;;;;;;;4.50;2.20;;;7.20;1.00;;;;;;5060366;28;20251;-74
2023/04/20 03:54:57;;;;;;;6.93;2.20;;;7.30;1.00;;;;;;5061618;28;20235;-76
2023/04/20 03:57:23;;;;;;;3.40;2.17;;;7.20;1.00;;;;;;5061448;28;20232;-75
2023/04/20 03:59:48;;;;;;;5.97;2.33;;;7.20;1.00;;;;;;5061690;28;20187;-75
2023/04/20 04:02:14;;;;;;;5.57;2.23;;;7.20;1.00;;;;;;5061757;28;20180;-75
2023/04/20 04:04:40;;;;;;;4.10;2.00;;;7.20;92.10;;;;;;5061105;28;20199;-75
2023/04/20 04:07:06;;;;;;;3.57;2.40;;;7.20;53.00;;;;;;5062004;28;20172;-75
2023/04/20 04:09:31;;;;;;;3.47;2.20;;;7.20;14.60;;;;;;5062699;28;20182;-75
2023/04/20 04:11:57;;;;;;;5.60;2.60;;;7.20;46.60;;;;;;5063214;28;20225;-75
2023/04/20 04:14:23;;;;;;;4.27;2.67;;;7.20;38.30;;;;;;5063208;28;20218;-75
2023/04/20 04:16:48;;;;;;;4.53;1.97;;;7.10;20.40;;;;;;5061230;28;20186;-75
2023/04/20 04:19:14;;;;;;;3.17;2.60;;;7.10;9.80;;;;;;5063129;28;20195;-75
2023/04/20 04:21:40;;;;;;;4.00;2.30;;;7.10;18.30;;;;;;5061506;28;20184;-75
2023/04/20 04:24:06;;;;;;;4.97;2.67;;;7.10;33.30;;;;;;5063884;28;20302;-75
2023/04/20 04:26:32;;;;;;;2.60;1.90;;;7.10;89.00;;;;;;5064034;28;20666;-75
2023/04/20 04:28:58;;;;;;;2.90;2.30;;;7.00;95.30;;;;;;5062499;28;20187;-75
2023/04/20 04:31:24;;;;;;;4.07;2.17;;;7.00;99.90;;;;;;5062747;28;20243;-75
2023/04/20 04:33:50;;;;;;;6.33;2.50;;;6.90;99.90;;;;;;5058984;28;20280;-76
2023/04/20 04:36:16;;;;;;;3.23;2.00;;;7.10;99.90;;;;;;5052648;28;20181;-75
2023/04/20 04:38:43;;;;;;;3.40;2.57;;;6.90;99.90;;;;;;5056471;28;20199;-75
2023/04/20 04:41:11;;;;;;;3.77;2.47;;;6.90;99.90;;;;;;5054681;28;20229;-75
2023/04/20 04:43:40;;;;;;;9.67;2.53;;;6.90;99.90;;;;;;5051043;28;20172;-76
2023/04/20 04:46:09;;;;;;;5.23;2.87;;;6.90;99.90;;;;;;5050863;28;20616;-75
2023/04/20 04:48:36;;;;;;;6.60;2.30;;;6.90;99.90;;;;;;5042490;28;20184;-75
2023/04/20 04:51:02;;;;;;;6.57;2.70;;;6.90;99.90;;;;;;5041775;28;20168;-75
2023/04/20 04:53:27;;;;;;;8.87;2.70;;;6.90;99.90;;;;;;5038644;28;20271;-75
2023/04/20 04:55:53;;;;;;;8.50;2.53;;;7.00;99.90;;;;;;5041750;28;20265;-75
2023/04/20 04:58:18;;;;;;;4.13;2.50;;;7.00;99.90;;;;;;5042035;28;20180;-75
2023/04/20 05:00:44;;;;;;;6.23;2.43;;;7.00;99.90;;;;;;5044492;28;20241;-75
2023/04/20 05:03:10;;;;;;;5.53;3.07;;;7.00;99.90;;;;;;5061608;28;20176;-74
2023/04/20 05:05:35;;;;;;;4.80;2.67;;;7.10;99.90;;;;;;5060230;28;20195;-75
2023/04/20 05:08:01;;;;;;;5.33;2.77;;;7.10;99.90;;;;;;5061038;28;20644;-75
2023/04/20 05:10:26;;;;;;;5.00;2.80;;;7.20;99.90;;;;;;5058847;28;20269;-77
2023/04/20 05:12:52;;;;;;;6.60;3.10;;;7.20;99.90;;;;;;5054560;28;20174;-75
2023/04/20 05:15:18;;;;;;;4.27;3.10;;;7.30;99.90;;;;;;5054880;28;20192;-75
2023/04/20 05:17:43;;;;;;;4.23;3.10;;;7.30;99.90;;;;;;5056792;28;20175;-76
2023/04/20 05:20:10;;;;;;;6.10;3.27;;;7.40;99.90;;;;;;5056304;28;20175;-75
2023/04/20 05:22:36;;;;;;;6.70;3.70;;;7.50;99.90;;;;;;5054190;28;20168;-76
2023/04/20 05:25:02;;;;;;;9.87;3.77;;;7.50;99.90;;;;;;5055751;28;20278;-75
2023/04/20 05:27:28;;;;;;;5.30;3.40;;;7.50;99.90;;;;;;5058698;28;20643;-76
2023/04/20 05:29:53;;;;;;;5.20;2.80;;;7.50;99.90;;;;;;5053717;28;20179;-75
2023/04/20 05:32:19;;;;;;;7.50;3.20;;;7.60;99.90;;;;;;5056436;28;20179;-76
2023/04/20 05:34:44;;;;;;;4.03;2.77;;;7.60;99.90;;;;;;5053237;28;20214;-76
2023/04/20 05:37:10;;;;;;;6.50;3.00;;;7.60;99.90;;;;;;5053903;28;20183;-75
2023/04/20 05:39:36;;;;;;;5.50;3.10;;;7.70;99.90;;;;;;5052824;28;20168;-76
2023/04/20 05:42:01;;;;;;;4.57;2.80;;;7.70;99.90;;;;;;5057140;28;20251;-76
2023/04/20 05:44:27;;;;;;;20.67;3.67;;;7.70;99.90;;;;;;5055506;28;20286;-76
2023/04/20 05:46:52;;;;;;;6.43;3.40;;;7.70;99.90;;;;;;5056134;28;20167;-76
2023/04/20 05:49:18;;;;;;;5.43;3.10;;;7.80;99.90;;;;;;5053015;28;20711;-76
2023/04/20 05:51:43;;;;;;;5.50;3.57;;;7.70;99.90;;;;;;5053899;28;20279;-77
2023/04/20 05:54:09;;;;;;;9.53;3.10;;;7.70;99.90;;;;;;5053895;28;20215;-77
2023/04/20 05:56:34;;;;;;;7.13;3.13;;;7.80;99.90;;;;;;5053681;28;20175;-76
2023/04/20 05:59:00;;;;;;;4.97;3.30;;;7.80;99.90;;;;;;5052200;28;20692;-77
2023/04/20 06:01:26;;;;;;;4.00;2.67;;;7.80;99.90;;;;;;5053421;28;20670;-77
2023/04/20 06:03:51;;;;;;;9.33;3.10;;;7.80;99.90;;;;;;5053360;28;20701;-77
2023/04/20 06:06:17;;;;;;;3.13;2.60;;;7.80;99.90;;;;;;5051829;28;20678;-76
2023/04/20 06:08:42;;;;;;;7.97;3.00;;;7.80;99.90;;;;;;5054340;28;20592;-77
2023/04/20 06:11:08;;;;;;;4.13;3.13;;;7.80;99.90;;;;;;5053885;28;20184;-77
2023/04/20 06:13:34;;;;;;;4.63;3.40;;;7.80;99.90;;;;;;5053887;28;20168;-78
2023/04/20 06:15:59;;;;;;;5.03;3.10;;;7.80;99.90;;;;;;5052503;28;20523;-77
2023/04/20 06:18:25;;;;;;;4.63;3.00;;;7.80;99.90;;;;;;5053865;28;20172;-76
2023/04/20 06:20:50;;;;;;;5.93;3.33;;;7.80;99.90;;;;;;5054426;28;20666;-77
2023/04/20 06:23:16;;;;;;;6.50;3.00;;;7.80;99.90;;;;;;5052359;28;20181;-76
2023/04/20 06:25:41;;;;;;;4.07;3.07;;;7.80;99.90;;;;;;5052124;28;20278;-77
2023/04/20 06:28:07;;;;;;;5.47;3.30;;;7.80;99.90;;;;;;5053297;28;20171;-77
2023/04/20 06:30:33;;;;;;;5.63;3.77;;;7.90;99.90;;;;;;5053481;28;20250;-77
2023/04/20 06:32:59;;;;;;;5.93;3.67;;;7.90;99.90;;;;;;5054030;28;20258;-77
2023/04/20 06:35:25;;;;;;;5.67;3.17;;;7.90;99.90;;;;;;5053685;28;20286;-76
2023/04/20 06:37:51;;;;;;;5.13;3.33;;;7.90;99.90;;;;;;5055444;28;20243;-76
2023/04/20 06:40:17;;;;;;;5.93;3.67;;;7.90;99.90;;;;;;5056226;28;20182;-76
2023/04/20 06:42:43;;;;;;;7.90;3.83;;;7.90;99.90;;;;;;5055369;28;20182;-76
2023/04/20 06:45:09;;;;;;;5.20;3.57;;;7.90;99.90;;;;;;5055435;28;20238;-76
2023/04/20 06:47:35;;;;;;;4.77;3.27;;;8.00;99.90;;;;;;5055443;28;20225;-76
2023/04/20 06:50:03;;;;;;;4.93;3.50;;;8.00;99.90;;;;;;5056888;28;20176;-75
2023/04/20 06:52:30;;;;;;;5.13;3.50;;;8.00;99.90;;;;;;5058991;28;20525;-76
2023/04/20 06:54:58;;;;;;;3.57;3.03;;;8.00;99.90;;;;;;5057461;28;20195;-75
2023/04/20 06:57:24;;;;;;;4.10;3.30;;;8.30;99.90;;;;;;5056227;28;20176;-76
2023/04/20 06:59:49;;;;;;;3.93;3.30;;;8.10;99.90;;;;;;5056156;28;20175;-77
2023/04/20 07:02:15;;;;;;;3.93;3.53;;;8.10;99.90;;;;;;5055482;28;20198;-76
2023/04/20 07:04:40;;;;;;;3.70;3.30;;;8.10;99.90;;;;;;5056527;28;20196;-75
2023/04/20 07:07:06;;;;;;;4.17;3.73;;;8.00;99.90;;;;;;5058229;28;20189;-76
2023/04/20 07:09:32;;;;;;;5.50;3.57;;;7.90;99.90;;;;;;5055306;28;20739;-75
2023/04/20 07:11:57;;;;;;;5.83;3.70;;;7.90;99.90;;;;;;5055287;28;20286;-76
2023/04/20 07:14:23;;;;;;;6.23;3.83;;;8.00;99.90;;;;;;5055730;28;20211;-76
2023/04/20 07:16:52;;;;;;;9.03;3.50;;;7.90;99.90;;;;;;5057302;28;20171;-75
2023/04/20 07:19:18;;;;;;;5.17;3.37;;;7.90;99.90;;;;;;5059565;28;20187;-76
2023/04/20 07:21:43;;;;;;;4.97;3.73;;;7.90;99.90;;;;;;5059915;28;20184;-74
2023/04/20 07:24:08;;;;;;;4.43;3.63;;;7.90;99.90;;;;;;5060871;28;20282;-76
2023/04/20 07:26:34;;;;;;;6.93;4.30;;;7.90;99.90;;;;;;5059454;28;20828;-76
2023/04/20 07:29:00;;;;;;;6.83;3.57;;;7.80;99.90;;;;;;5060595;28;20179;-76
2023/04/20 07:31:25;;;;;;;5.07;3.90;;;7.80;99.90;;;;;;5058337;28;20267;-76
2023/04/20 07:33:51;;;;;;;5.53;4.13;;;8.00;99.90;;;;;;5058741;28;20207;-74
2023/04/20 07:36:17;;;;;;;5.27;4.07;;;7.80;99.90;;;;;;5059762;28;20519;-76
2023/04/20 07:38:42;;;;;;;9.17;4.23;;;7.80;99.90;;;;;;5057984;28;20179;-74
2023/04/20 07:41:10;;;;;;;6.83;4.67;;;7.70;99.90;;;;;;5060160;28;20261;-75
2023/04/20 07:43:35;;;;;;;8.43;4.80;;;7.70;99.90;;;;;;5057662;28;20222;-75
2023/04/20 07:46:01;;;;;;;7.00;4.67;;;7.80;99.90;;;;;;5060303;28;20174;-74
2023/04/20 07:48:27;;;;;;;7.33;4.87;;;7.80;99.90;;;;;;5059100;28;20168;-74
2023/04/20 07:50:52;;;;;;;5.13;4.57;;;7.80;99.90;;;;;;5057853;28;20178;-74
2023/04/20 07:53:18;;;;;;;6.47;4.90;;;7.90;99.90;;;;;;5057288;28;20182;-74
2023/04/20 07:55:43;;;;;;;6.87;5.03;;;7.80;99.90;;;;;;5058130;28;20214;-74
2023/04/20 07:58:09;;;;;;;8.03;4.90;;;7.90;99.90;;;;;;5055648;28;20179;-74
2023/04/20 08:00:34;;;;;;;7.63;4.80;;;7.90;99.90;;;;;;5055568;28;20176;-74
2023/04/20 08:03:00;;;;;;;5.47;4.50;;;7.90;99.90;;;;;;5056065;28;20267;-74
2023/04/20 08:05:26;;;;;;;6.50;5.27;;;7.90;99.90;;;;;;5054495;28;20290;-74
2023/04/20 08:07:51;;;;;;;5.80;5.00;;;8.00;99.90;;;;;;5055814;28;20175;-77
2023/04/20 08:10:17;;;;;;;7.73;5.03;;;8.00;99.90;;;;;;5056618;28;20180;-74
2023/04/20 08:12:43;;;;;;;7.20;5.03;;;8.00;99.90;;;;;;5056249;28;20187;-74
2023/04/20 08:15:09;;;;;;;8.40;5.50;;;8.00;99.90;;;;;;5055114;28;20748;-77
2023/04/20 08:17:35;;;;;;;10.07;4.87;;;8.10;99.90;;;;;;5056923;28;20171;-74
2023/04/20 08:20:00;;;;;;;5.30;4.80;;;8.20;99.90;;;;;;5057605;28;20673;-75
2023/04/20 08:22:28;;;;;;;7.27;4.70;;;8.20;99.90;;;;;;5058542;28;20522;-75
2023/04/20 08:24:58;;;;;;;6.37;4.63;;;8.20;99.90;;;;;;5054662;28;20685;-75
2023/04/20 08:27:24;;;;;;;7.30;4.33;;;8.30;99.90;;;;;;5057829;28;20211;-74
2023/04/20 08:29:50;;;;;;;6.20;4.53;;;8.30;99.90;;;;;;5057406;28;20171;-75
2023/04/20 08:32:17;;;;;;;8.13;5.00;;;8.40;99.90;;;;;;5057103;28;20190;-74
2023/04/20 08:34:43;;;;;;;7.27;4.60;;;8.50;99.90;;;;;;5056780;28;20218;-74
2023/04/20 08:37:09;;;;;;;4.47;3.97;;;8.40;99.90;;;;;;5056349;28;20651;-74
2023/04/20 08:39:35;;;;;;;8.27;4.37;;;8.50;99.90;;;;;;5056486;28;20729;-74
2023/04/20 08:42:01;;;;;;;6.37;4.40;;;8.50;99.90;;;;;;5055548;28;20175;-75
2023/04/20 08:44:26;;;;;;;6.77;4.67;;;8.50;99.90;;;;;;5057079;28;20197;-75
2023/04/20 08:46:53;;;;;;;4.87;3.87;;;8.50;99.90;;;;;;5056627;28;20199;-75
2023/04/20 08:49:19;;;;;;;6.20;3.93;;;8.50;99.90;;;;;;5056921;28;20172;-74
2023/04/20 08:51:46;;;;;;;6.57;4.03;;;8.60;99.90;;;;;;5055559;28;20175;-75
2023/04/20 08:54:13;;;;;;;5.13;4.07;;;8.60;99.90;;;;;;5055085;28;20305;-75
2023/04/20 08:56:41;;;;;;;5.33;3.83;;;8.70;99.90;;;;;;5056767;28;20476;-75
2023/04/20 08:59:12;;;;;;;5.83;4.60;;;8.70;99.90;;;;;;5056508;28;20182;-75
2023/04/20 09:01:40;;;;;;;6.57;4.60;;;8.80;99.90;;;;;;5055293;28;20182;-75
2023/04/20 09:04:23;;;;;;;4.60;4.10;;;8.80;99.90;;;;;;5055128;28;20234;-74
2023/04/20 09:06:50;;;;;;;4.80;4.20;;;8.80;99.90;;;;;;5057267;28;20620;-75
2023/04/20 09:09:17;;;;;;;5.67;4.33;;;8.80;99.90;;;;;;5054737;28;20670;-74
2023/04/20 09:11:43;;;;;;;7.27;5.27;;;8.80;99.90;;;;;;5055502;28;20682;-75
2023/04/20 09:14:13;;;;;;;5.07;4.53;;;8.80;99.90;;;;;;5053545;28;20629;-74
2023/04/20 09:16:55;;;;;;;5.40;4.20;;;8.80;99.90;;;;;;5054431;28;20532;-75
2023/04/20 09:19:25;;;;;;;6.90;4.63;;;8.80;99.90;;;;;;5054644;28;20199;-75
2023/04/20 09:21:55;;;;;;;8.67;4.60;;;8.70;99.90;;;;;;5053272;28;20176;-75
2023/04/20 09:24:32;;;;;;;5.00;4.13;;;8.70;99.90;;;;;;5053238;28;20207;-78
2023/04/20 09:26:58;;;;;;;11.97;4.87;;;8.80;99.90;;;;;;5054031;28;20194;-77
2023/04/20 09:29:27;;;;;;;6.80;4.00;;;8.80;99.90;;;;;;5054670;28;20202;-78
2023/04/20 09:31:53;;;;;;;5.50;4.23;;;8.80;99.90;;;;;;5055598;28;20182;-77
2023/04/20 09:34:20;;;;;;;5.67;4.30;;;8.90;99.90;;;;;;5054837;28;20675;-77
2023/04/20 09:36:50;;;;;;;11.77;4.73;;;9.00;99.90;;;;;;5052905;28;20186;-77
2023/04/20 09:39:21;;;;;;;5.73;4.13;;;9.00;99.90;;;;;;5053920;28;20552;-75
2023/04/20 09:41:47;;;;;;;4.77;3.80;;;9.00;99.90;;;;;;5056196;28;20156;-75
2023/04/20 09:44:15;;;;;;;4.63;4.10;;;9.00;99.90;;;;;;5056464;28;20196;-75
2023/04/20 09:46:41;;;;;;;4.80;3.67;;;9.10;99.90;;;;;;5057114;28;20635;-75
2023/04/20 09:49:09;;;;;;;5.17;3.93;;;9.20;99.90;;;;;;5055920;28;20183;-75
2023/04/20 09:51:37;;;;;;;5.77;3.90;;;9.30;99.90;;;;;;5055543;28;20187;-75
2023/04/20 09:54:04;;;;;;;6.23;4.10;;;9.40;99.90;;;;;;5054274;28;20554;-75
2023/04/20 09:56:31;;;;;;;6.43;4.73;;;9.50;99.90;;;;;;5057320;28;20167;-75
2023/04/20 09:58:58;;;;;;;4.57;3.57;;;9.60;99.90;;;;;;5054213;28;20180;-76
2023/04/20 10:01:24;;;;;;;5.10;3.90;;;9.50;99.90;;;;;;5057836;28;20191;-76
2023/04/20 10:03:54;;;;;;;4.73;3.77;;;9.40;99.90;;;;;;5058337;28;20294;-77
2023/04/20 10:06:32;;;;;;;5.17;4.33;;;9.50;99.90;;;;;;5057594;28;20152;-76
2023/04/20 10:09:01;;;;;;;5.27;3.90;;;9.60;99.90;;;;;;5056295;28;20193;-76
2023/04/20 10:11:41;;;;;;;4.30;3.90;;;9.60;99.90;;;;;;5057101;28;20215;-76
2023/04/20 10:14:24;;;;;;;6.80;4.10;;;9.70;99.90;;;;;;5056694;28;20210;-76
2023/04/20 10:16:59;;;;;;;6.37;4.40;;;9.80;99.90;;;;;;5056860;28;20217;-76
2023/04/20 10:19:44;;;;;;;7.23;4.70;;;9.80;99.90;;;;;;5056710;28;20183;-76
2023/04/20 10:22:12;;;;;;;6.13;4.53;;;9.80;99.90;;;;;;5054877;28;20160;-77
2023/04/20 10:24:39;;;;;;;4.77;4.23;;;9.90;99.90;;;;;;5054526;28;20209;-76
2023/04/20 10:27:24;;;;;;;5.23;4.63;;;9.90;99.90;;;;;;5055909;28;20171;-76
2023/04/20 10:29:50;;;;;;;4.63;3.93;;;9.90;99.90;;;;;;5057107;28;20191;-77
2023/04/20 10:32:27;;;;;;;5.60;3.60;;;10.00;99.90;;;;;;5058471;28;20190;-77
2023/04/20 10:35:06;;;;;;;4.20;3.60;;;10.00;99.90;;;;;;5058940;28;20217;-76
2023/04/20 10:37:33;;;;;;;5.43;3.70;;;10.10;99.90;;;;;;5058917;28;20560;-76
2023/04/20 10:39:59;;;;;;;3.73;3.07;;;10.10;99.90;;;;;;5058641;28;20674;-76
2023/04/20 10:42:28;;;;;;;6.50;3.73;;;10.60;99.90;;;;;;5056216;28;20194;-76
2023/04/20 10:44:54;;;;;;;3.87;3.43;;;10.10;99.90;;;;;;5053762;28;20203;-77
2023/04/20 10:47:27;;;;;;;3.93;3.47;;;10.00;99.90;;;;;;5055420;28;20175;-77
2023/04/20 10:49:53;;;;;;;5.27;3.40;;;9.90;99.90;;;;;;5055848;28;20658;-77
2023/04/20 10:52:37;;;;;;;4.53;3.47;;;9.90;99.90;;;;;;5055770;28;20190;-76
2023/04/20 10:55:05;;;;;;;4.37;3.97;;;9.80;99.90;;;;;;5055737;28;20756;-76
2023/04/20 10:57:31;;;;;;;6.17;3.93;;;9.80;99.90;;;;;;5057431;28;20259;-77
2023/04/20 10:59:57;;;;;;;5.07;3.60;;;9.90;99.90;;;;;;5055032;28;20226;-77
2023/04/20 11:02:22;;;;;;;4.23;3.30;;;9.90;99.90;;;;;;5054966;28;20177;-76
2023/04/20 11:04:48;;;;;;;4.20;3.20;;;10.10;99.90;;;;;;5056275;28;20191;-77
2023/04/20 11:07:13;;;;;;;5.57;3.30;;;10.20;99.90;;;;;;5056631;28;20183;-77
2023/04/20 11:09:41;;;;;;;3.97;2.83;;;10.20;99.90;;;;;;5056990;28;20180;-77
2023/04/20 11:12:10;;;;;;;3.83;2.80;;;10.30;99.90;;;;;;5055244;28;20566;-76
2023/04/20 11:14:48;;;;;;;3.30;2.63;;;10.40;99.90;;;;;;5053289;28;20226;-76
2023/04/20 11:17:14;;;;;;;3.33;2.40;;;10.50;99.90;;;;;;5053819;28;20167;-77
2023/04/20 11:19:40;;;;;;;2.50;2.20;;;10.70;99.90;;;;;;5054989;28;20221;-77
2023/04/20 11:22:06;;;;;;;2.43;2.17;;;10.80;99.90;;;;;;5054408;28;20266;-77
2023/04/20 11:24:33;;;;;;;3.30;2.40;;;10.80;99.90;;;;;;5054282;28;20199;-77
2023/04/20 11:27:00;;;;;;;2.53;2.03;;;10.80;99.90;;;;;;5055490;28;20203;-76
2023/04/20 11:29:37;;;;;;;2.40;1.87;;;10.80;99.90;;;;;;5055967;28;20215;-77
2023/04/20 11:32:08;;;;;;;2.53;1.93;;;10.80;99.90;;;;;;5055453;28;20182;-77
2023/04/20 11:34:35;;;;;;;1.80;1.70;;;10.90;99.90;;;;;;5054119;28;20203;-76
2023/04/20 11:37:10;;;;;;;3.07;1.97;;;10.90;99.90;;;;;;5055153;28;20175;-76
2023/04/20 11:39:36;;;;;;;6.10;2.40;;;10.90;99.90;;;;;;5055569;28;20236;-76
2023/04/20 11:42:03;;;;;;;2.60;2.27;;;10.90;99.90;;;;;;5055031;28;20176;-76
2023/04/20 11:44:28;;;;;;;2.57;2.07;;;10.90;99.90;;;;;;5038001;28;20199;-77
2023/04/20 11:46:57;;;;;;;2.50;2.20;;;11.00;99.90;;;;;;5055689;28;20189;-76
2023/04/20 11:49:25;;;;;;;2.57;2.10;;;11.20;99.90;;;;;;5056081;28;20639;-76
2023/04/20 11:51:50;;;;;;;1.80;1.70;;;11.30;99.90;;;;;;5055986;28;20705;-77
2023/04/20 11:54:20;;;;;;;2.33;2.13;;;11.40;99.90;;;;;;5054876;28;20207;-77
2023/04/20 11:56:46;;;;;;;3.37;2.80;;;11.50;99.90;;;;;;5053594;28;20210;-77
2023/04/20 11:59:15;;;;;;;2.43;2.23;;;11.60;99.90;;;;;;5053457;28;20176;-77
2023/04/20 12:01:41;;;;;;;2.53;1.97;;;11.80;99.90;;;;;;5053049;28;20180;-76
2023/04/20 12:04:06;;;;;;;3.03;2.57;;;11.80;99.90;;;;;;5056261;28;20252;-76
2023/04/20 12:06:32;;;;;;;3.20;2.40;;;11.90;99.90;;;;;;5057414;28;20223;-77
2023/04/20 12:08:59;;;;;;;3.07;2.43;;;11.80;99.90;;;;;;5058779;28;20191;-77
2023/04/20 12:11:24;;;;;;;2.53;2.33;;;10.80;99.90;;;;;;5057929;28;20627;-76
2023/04/20 12:13:50;;;;;;;2.50;2.27;;;11.70;99.90;;;;;;5058445;28;20242;-77
2023/04/20 12:16:16;;;;;;;2.67;2.27;;;11.50;99.90;;;;;;5058554;28;20258;-77
2023/04/20 12:18:41;;;;;;;2.57;2.30;;;11.70;99.90;;;;;;5059064;28;20182;-77
2023/04/20 12:21:07;;;;;;;2.87;2.30;;;11.80;99.90;;;;;;5058437;28;20186;-77
2023/04/20 12:23:35;;;;;;;2.30;1.90;;;11.90;99.90;;;;;;5056705;28;20681;-77
2023/04/20 12:26:01;;;;;;;2.10;1.90;;;11.80;99.90;;;;;;5058239;28;20279;-77
2023/04/20 12:28:27;;;;;;;2.93;2.40;;;11.90;99.90;;;;;;5059322;28;20211;-77
2023/04/20 12:30:52;;;;;;;5.70;2.30;;;11.80;99.90;;;;;;5058444;28;20691;-77
2023/04/20 12:33:18;;;;;;;2.57;2.00;;;11.80;99.90;;;;;;5057983;28;20651;-77
2023/04/20 12:35:44;;;;;;;3.37;2.47;;;11.80;99.90;;;;;;5059122;28;20734;-77
2023/04/20 12:38:09;;;;;;;1.70;1.60;;;11.80;99.90;;;;;;5058504;28;20547;-77
2023/04/20 12:40:35;;;;;;;2.80;2.40;;;11.80;99.90;;;;;;5058574;28;20172;-77
2023/04/20 12:43:00;;;;;;;2.57;2.17;;;11.80;99.90;;;;;;5058758;28;20176;-77
2023/04/20 12:45:26;;;;;;;2.40;1.80;;;12.00;99.90;;;;;;5056497;28;20235;-77
2023/04/20 12:47:51;;;;;;;2.10;1.90;;;12.00;96.60;;;;;;5058570;28;20199;-76
2023/04/20 12:50:17;;;;;;;1.70;1.60;;;12.00;84.10;;;;;;5057300;28;20222;-76
2023/04/20 12:52:42;;;;;;;2.27;1.87;;;12.00;68.40;;;;;;5057430;28;20172;-77
2023/04/20 12:55:10;;;;;;;2.40;2.20;;;12.10;76.40;;;;;;5056954;28;20208;-76